Time;durP1;ratioP1;P1;durP2;ratioP2;P2;SDS_P1;SDS_P2;PMS_P1;PMS_P2;Temp;Humidity;BMP_temperature;BMP_pressure;BME280_temperature;BME280_humidity;BME280_pressure;Samples;Min_cycle;Max_cycle;Signal;HPM_P1;HPM_P2
2021/05/24 00:02:50;;;;;;;;;;;10.10;99.90;;;8.94;76.98;95829.72;10357841;28;2064;-83
2021/05/24 00:07:53;;;;;;;;;;;10.10;99.90;;;8.90;77.04;95796.44;10355034;28;1562;-82
2021/05/24 00:12:57;;;;;;;;;;;10.00;99.90;;;8.88;77.11;95795.91;10284341;28;1944;-82
2021/05/24 00:18:00;;;;;;;;;;;10.00;99.90;;;8.92;77.45;95805.06;10351794;28;2029;-81
2021/05/24 00:23:03;;;;;;;;;;;10.00;99.90;;;8.83;77.98;95785.16;10286525;28;1713;-81
2021/05/24 00:28:06;;;;;;;;;;;10.10;99.90;;;8.83;77.21;95784.38;10334720;28;2341;-82
2021/05/24 00:33:10;;;;;;;;;;;10.00;99.90;;;8.76;77.97;95787.28;10346497;28;2309;-80
2021/05/24 00:38:13;;;;;;;;;;;9.90;99.90;;;8.74;78.05;95769.88;10270965;28;1970;-82
2021/05/24 00:43:16;;;;;;;;;;;11.10;99.90;;;8.73;77.36;95762.91;10292723;28;2054;-81
2021/05/24 00:48:20;;;;;;;;;;;9.90;99.90;;;8.70;78.22;95758.03;10340055;28;2368;-84
2021/05/24 00:53:22;;;;;;;;;;;9.80;99.90;;;8.56;78.67;95752.38;10356417;28;1836;-85
2021/05/24 00:58:25;;;;;;;;;;;10.50;99.90;;;8.46;79.17;95742.41;10370993;28;1891;-82
2021/05/24 01:03:28;;;;;;;;;;;9.70;99.90;;;8.37;80.52;95733.25;10292897;28;2066;-83
2021/05/24 01:08:31;;;;;;;;;;;10.70;99.90;;;8.36;80.03;95710.22;10339558;28;2028;-81
2021/05/24 01:13:35;;;;;;;;;;;9.60;99.90;;;8.26;80.23;95710.13;10344110;28;2071;-81
2021/05/24 01:18:38;;;;;;;;;;;11.10;99.90;;;8.17;81.06;95723.22;10275089;28;1960;-83
2021/05/24 01:23:41;;;;;;;;;;;9.70;99.90;;;8.05;81.09;95714.56;10331633;28;2022;-82
2021/05/24 01:28:44;;;;;;;;;;;10.70;99.90;;;8.02;81.62;95699.84;10264238;28;1745;-83
2021/05/24 01:33:47;;;;;;;;;;;9.20;99.90;;;8.09;81.83;95708.44;10288914;28;1728;-83
2021/05/24 01:38:50;;;;;;;;;;;9.20;99.90;;;8.00;81.99;95685.09;10335536;28;1907;-84
2021/05/24 01:43:53;;;;;;;;;;;10.40;99.90;;;7.98;81.76;95671.97;10335404;28;2290;-82
2021/05/24 01:48:56;;;;;;;;;;;9.60;99.90;;;7.95;81.96;95672.50;10272634;28;2205;-84
2021/05/24 01:54:00;;;;;;;;;;;11.10;99.90;;;7.91;81.68;95660.69;10333024;28;2072;-82
2021/05/24 01:59:03;;;;;;;;;;;9.90;99.90;;;7.79;82.62;95652.06;10337539;28;2083;-83
2021/05/24 02:04:06;;;;;;;;;;;10.60;99.90;;;7.75;83.18;95667.00;10345460;28;2129;-83
2021/05/24 02:09:09;;;;;;;;;;;9.00;99.90;;;7.77;83.30;95659.53;10330297;28;2209;-84
2021/05/24 02:14:12;;;;;;;;;;;9.10;99.90;;;7.74;83.58;95649.34;10364769;28;2019;-84
2021/05/24 02:19:15;;;;;;;;;;;9.50;99.90;;;7.75;83.76;95645.59;10275486;28;2058;-84
2021/05/24 02:24:19;;;;;;;;;;;10.70;99.90;;;7.77;83.31;95643.50;10333006;28;2031;-83
2021/05/24 02:29:22;;;;;;;;;;;8.90;99.90;;;7.65;84.39;95629.50;10351315;28;2172;-82
2021/05/24 02:34:25;;;;;;;;;;;8.90;99.90;;;7.72;83.55;95622.03;10267760;28;2105;-82
2021/05/24 02:39:28;;;;;;;;;;;10.10;99.90;;;7.62;83.83;95609.41;10351670;28;1963;-84
2021/05/24 02:44:31;;;;;;;;;;;8.80;99.90;;;7.66;83.54;95605.16;10331194;28;2225;-83
2021/05/24 02:49:34;;;;;;;;;;;9.30;99.90;;;7.60;84.56;95584.78;10340365;28;1954;-83
2021/05/24 02:54:37;;;;;;;;;;;10.50;99.90;;;7.40;85.00;95590.81;10331564;28;1912;-84
2021/05/24 02:59:40;;;;;;;;;;;8.70;99.90;;;7.44;85.76;95594.56;10345051;28;2009;-81
2021/05/24 03:04:44;;;;;;;;;;;10.20;99.90;;;7.39;85.78;95591.09;10325515;28;2173;-83
2021/05/24 03:09:47;;;;;;;;;;;9.30;99.90;;;7.36;85.47;95604.97;10334770;28;2135;-81
2021/05/24 03:14:50;;;;;;;;;;;8.50;99.90;;;7.37;85.48;95625.28;10327761;28;2174;-83
2021/05/24 03:19:52;;;;;;;;;;;8.40;99.90;;;7.32;86.07;95604.69;10332218;28;2182;-83
2021/05/24 03:24:55;;;;;;;;;;;9.30;99.90;;;7.17;86.50;95620.59;10266361;28;2139;-84
2021/05/24 03:29:59;;;;;;;;;;;8.70;99.90;;;7.25;86.96;95596.06;10336639;28;2069;-85
2021/05/24 03:35:02;;;;;;;;;;;9.60;99.90;;;7.29;86.16;95583.78;10338773;28;2096;-84
2021/05/24 03:40:05;;;;;;;;;;;8.40;99.90;;;7.21;86.80;95587.75;10331744;28;2209;-82
2021/05/24 03:45:08;;;;;;;;;;;10.20;99.90;;;7.24;87.26;95586.44;10266995;28;1487;-85
2021/05/24 03:50:10;;;;;;;;;;;8.40;99.90;;;7.20;85.91;95585.34;10264359;28;2087;-82
2021/05/24 03:55:14;;;;;;;;;;;9.60;99.90;;;7.28;86.51;95579.50;10337087;28;2119;-83
2021/05/24 04:00:20;;;;;;;;;;;9.10;99.90;;;7.34;86.03;95573.13;10345645;28;2389;-83
2021/05/24 04:05:27;;;;;;;;;;;8.40;99.90;;;7.39;85.38;95569.69;10269990;28;1940;-84
2021/05/24 04:10:32;;;;;;;;;;;9.80;99.90;;;7.44;85.55;95575.06;10335694;28;2105;-84
2021/05/24 04:15:36;;;;;;;;;;;9.70;99.90;;;7.52;84.55;95559.34;10350506;28;2209;-84
2021/05/24 04:20:59;;;;;;;;;;;8.50;99.90;;;7.60;84.28;95547.34;10296153;28;2177;-83
2021/05/24 04:26:24;;;;;;;;;;;9.40;99.90;;;7.56;84.68;95547.03;10260837;28;2167;-84
2021/05/24 04:31:47;;;;;;;;;;;8.80;99.90;;;7.58;84.87;95549.47;10276458;28;2131;-83
2021/05/24 04:37:09;;;;;;;;;;;9.90;99.90;;;7.68;84.43;95528.09;10269482;28;2095;-83
2021/05/24 04:42:32;;;;;;;;;;;8.70;99.90;;;7.80;84.17;95551.97;10278699;28;2154;-83
2021/05/24 04:47:55;;;;;;;;;;;8.80;99.90;;;8.03;82.90;95551.53;10283957;28;2300;-82
2021/05/24 04:53:18;;;;;;;;;;;8.90;99.90;;;8.22;81.61;95548.38;10274312;28;2059;-83
2021/05/24 04:58:41;;;;;;;;;;;10.20;99.90;;;8.09;80.58;95531.75;10262898;28;2221;-81
2021/05/24 05:03:44;;;;;;;;;;;9.20;99.90;;;8.03;81.51;95542.72;10280980;28;2135;-82
2021/05/24 05:08:47;;;;;;;;;;;10.00;99.90;;;8.26;79.75;95552.13;10268044;28;2152;-83
2021/05/24 05:13:50;;;;;;;;;;;9.40;99.90;;;8.45;78.81;95545.22;10277264;28;1884;-83
2021/05/24 05:18:56;;;;;;;;;;;10.70;99.90;;;8.47;79.27;95553.03;10345220;28;1939;-83
2021/05/24 05:23:59;;;;;;;;;;;9.50;99.90;;;8.56;78.92;95552.22;10280617;28;1618;-84
2021/05/24 05:29:02;;;;;;;;;;;10.50;99.90;;;8.69;77.91;95558.13;10361506;28;2140;-83
2021/05/24 05:34:05;;;;;;;;;;;9.60;99.90;;;8.88;76.23;95561.91;10339269;28;1676;-85
2021/05/24 05:39:08;;;;;;;;;;;11.10;99.90;;;8.94;76.44;95552.78;10346448;28;2031;-84
2021/05/24 05:44:11;;;;;;;;;;;9.90;99.90;;;9.08;75.38;95540.44;10279811;28;2067;-82
2021/05/24 05:49:15;;;;;;;;;;;10.90;99.90;;;9.30;74.75;95534.81;10338367;28;2084;-82
2021/05/24 05:54:18;;;;;;;;;;;10.10;99.90;;;9.60;72.19;95536.59;10332347;28;1845;-82
2021/05/24 05:59:21;;;;;;;;;;;10.40;99.90;;;9.73;72.18;95529.84;10339076;28;2066;-82
2021/05/24 06:04:24;;;;;;;;;;;10.60;99.90;;;9.94;70.91;95509.91;10340544;28;1889;-82
2021/05/24 06:09:27;;;;;;;;;;;10.70;99.90;;;9.86;71.27;95494.38;10269828;28;2118;-84
2021/05/24 06:14:30;;;;;;;;;;;10.90;99.90;;;9.97;69.87;95487.88;10275298;28;2048;-81
2021/05/24 06:19:33;;;;;;;;;;;10.90;99.90;;;10.27;68.52;95481.56;10342545;28;1957;-83
2021/05/24 06:24:38;;;;;;;;;;;11.00;99.90;;;10.40;68.62;95479.31;10272412;28;1958;-82
2021/05/24 06:29:41;;;;;;;;;;;11.20;99.90;;;10.45;67.43;95463.19;10330541;28;1567;-82
2021/05/24 06:34:44;;;;;;;;;;;11.30;99.90;;;10.86;66.62;95458.25;10282450;28;2003;-82
2021/05/24 06:39:46;;;;;;;;;;;11.60;99.90;;;11.12;65.45;95456.13;10340609;28;1938;-83
2021/05/24 06:44:50;;;;;;;;;;;11.90;99.90;;;11.77;63.86;95464.56;10290440;28;1948;-85
2021/05/24 06:49:52;;;;;;;;;;;12.30;99.90;;;12.50;60.39;95486.78;10358640;28;1706;-82
2021/05/24 06:54:56;;;;;;;;;;;12.90;99.90;;;12.74;60.07;95468.63;10337793;28;1861;-82
2021/05/24 06:59:58;;;;;;;;;;;13.40;99.90;;;12.74;59.27;95492.09;10322746;28;1906;-83
2021/05/24 07:05:01;;;;;;;;;;;13.50;99.90;;;12.98;59.05;95476.59;10323852;28;1708;-82
2021/05/24 07:10:04;;;;;;;;;;;13.60;99.90;;;13.39;57.82;95465.88;10278352;28;1948;-84
2021/05/24 07:15:06;;;;;;;;;;;14.00;99.90;;;13.28;57.32;95453.66;10352242;28;1883;-81
2021/05/24 07:20:09;;;;;;;;;;;14.10;99.90;;;13.15;57.28;95449.03;10275931;28;1952;-82
2021/05/24 07:25:12;;;;;;;;;;;14.10;99.90;;;13.35;57.76;95448.69;10300445;28;1997;-81
2021/05/24 07:30:15;;;;;;;;;;;14.10;99.90;;;13.81;55.43;95439.69;10339470;28;2048;-82
2021/05/24 07:35:19;;;;;;;;;;;14.50;99.90;;;14.22;54.36;95438.81;10343825;28;1900;-82
2021/05/24 07:40:21;;;;;;;;;;;14.70;99.90;;;14.11;54.33;95437.44;10301063;28;1903;-82
2021/05/24 07:45:24;;;;;;;;;;;15.00;99.90;;;14.40;54.91;95435.16;10340361;28;2024;-80
2021/05/24 07:50:27;;;;;;;;;;;15.00;99.90;;;14.84;53.04;95422.78;10281442;28;1833;-82
2021/05/24 07:55:30;;;;;;;;;;;15.40;99.90;;;15.94;50.50;95433.63;10279603;28;1962;-83
2021/05/24 08:00:35;;;;;;;;;;;16.00;99.90;;;16.26;49.30;95422.66;10285059;28;1895;-82
2021/05/24 08:05:38;;;;;;;;;;;16.60;99.90;;;16.86;47.41;95419.16;10332562;28;2098;-84
2021/05/24 08:10:40;;;;;;;;;;;17.10;99.90;;;16.58;47.96;95424.91;10334346;28;2001;-79
2021/05/24 08:15:43;;;;;;;;;;;17.30;99.90;;;16.86;48.38;95419.16;10326408;28;2010;-83
2021/05/24 08:20:48;;;;;;;;;;;17.40;99.90;;;17.59;46.10;95419.91;10335338;28;2191;-83
2021/05/24 08:25:51;;;;;;;;;;;17.90;99.90;;;17.79;44.64;95424.63;10333488;28;1848;-83
2021/05/24 08:30:53;;;;;;;;;;;18.20;99.90;;;17.38;45.60;95428.00;10342630;28;2154;-83
2021/05/24 08:35:56;;;;;;;;;;;18.20;99.90;;;17.38;46.14;95438.06;10321690;28;2080;-82
2021/05/24 08:41:06;;;;;;;;;;;18.10;99.90;;;17.23;45.96;95442.88;10252633;28;1994;-82
2021/05/24 08:46:08;;;;;;;;;;;18.00;99.90;;;17.49;46.54;95447.44;10268837;28;2060;-81
2021/05/24 08:51:11;;;;;;;;;;;18.10;99.90;;;17.66;46.01;95436.50;10265123;28;1747;-81
2021/05/24 08:56:14;;;;;;;;;;;18.40;99.90;;;17.74;45.15;95424.81;10260039;28;2008;-83
2021/05/24 09:01:16;;;;;;;;;;;18.50;99.90;;;17.11;46.71;95415.59;10332812;28;2179;-81
2021/05/24 09:06:19;;;;;;;;;;;18.20;99.90;;;16.43;48.22;95409.13;10321504;28;1981;-80
2021/05/24 09:11:21;;;;;;;;;;;17.70;99.90;;;16.30;49.64;95388.38;10322915;28;2030;-82
2021/05/24 09:16:24;;;;;;;;;;;17.20;99.90;;;16.07;49.51;95380.38;10254300;28;2084;-82
2021/05/24 09:21:27;;;;;;;;;;;17.20;99.90;;;16.16;49.15;95385.84;10338227;28;2125;-84
2021/05/24 09:26:33;;;;;;;;;;;17.10;99.90;;;16.40;48.72;95385.34;10259639;28;1794;-81
2021/05/24 09:31:38;;;;;;;;;;;17.10;99.90;;;16.75;48.09;95392.38;10335802;28;2052;-85
2021/05/24 09:36:41;;;;;;;;;;;17.40;99.90;;;16.67;48.78;95389.66;10264756;28;2340;-82
2021/05/24 09:41:45;;;;;;;;;;;17.50;99.90;;;16.68;48.50;95392.03;10331893;28;1924;-82
2021/05/24 09:46:48;;;;;;;;;;;17.60;99.90;;;16.86;48.42;95392.00;10326916;28;2285;-84
2021/05/24 09:51:52;;;;;;;;;;;17.70;99.90;;;16.69;50.51;95393.63;10263975;28;2073;-83
2021/05/24 09:56:54;;;;;;;;;;;17.60;99.90;;;17.04;49.84;95388.13;10341999;28;1845;-82
2021/05/24 10:01:59;;;;;;;;;;;17.70;99.90;;;17.85;47.15;95383.69;10263080;28;2058;-83
2021/05/24 10:07:01;;;;;;;;;;;18.30;99.90;;;17.66;46.28;95382.16;10266403;28;1988;-80
2021/05/24 10:12:06;;;;;;;;;;;18.60;99.90;;;17.53;46.73;95375.81;10265803;28;2043;-83
2021/05/24 10:17:11;;;;;;;;;;;18.60;99.30;;;18.40;45.10;95360.88;10275833;28;1998;-81
2021/05/24 10:22:13;;;;;;;;;;;18.80;99.30;;;18.24;46.07;95369.63;10330033;28;2035;-83
2021/05/24 10:27:16;;;;;;;;;;;19.10;98.30;;;19.07;43.47;95381.56;10332616;28;1869;-84
2021/05/24 10:32:18;;;;;;;;;;;19.70;96.90;;;18.68;44.97;95372.03;10270932;28;2008;-83
2021/05/24 10:37:22;;;;;;;;;;;19.70;96.30;;;18.45;45.68;95375.09;10263006;28;1837;-83
2021/05/24 10:42:24;;;;;;;;;;;19.50;96.00;;;18.13;45.81;95354.84;10268952;28;2004;-83
2021/05/24 10:47:27;;;;;;;;;;;19.20;95.60;;;17.99;46.88;95351.59;10331304;28;1898;-82
2021/05/24 10:52:29;;;;;;;;;;;18.90;96.80;;;18.23;46.07;95349.00;10253660;28;2055;-83
2021/05/24 10:57:32;;;;;;;;;;;18.90;96.80;;;18.68;45.73;95339.34;10254591;28;2090;-84
2021/05/24 11:02:38;;;;;;;;;;;19.20;97.00;;;18.86;44.90;95338.06;10343744;28;2260;-85
2021/05/24 11:07:42;;;;;;;;;;;19.60;95.90;;;19.08;44.77;95315.84;10336455;28;2146;-83
2021/05/24 11:12:47;;;;;;;;;;;19.70;95.90;;;18.65;45.45;95305.41;10327336;28;1997;-83
2021/05/24 11:17:49;;;;;;;;;;;19.80;94.50;;;19.31;44.52;95291.69;10287490;28;2086;-84
2021/05/24 11:22:51;;;;;;;;;;;19.80;94.80;;;19.90;44.20;95277.53;10286042;28;1893;-82
2021/05/24 11:27:54;;;;;;;;;;;20.30;95.20;;;20.05;43.42;95275.25;10330599;28;2019;-83
2021/05/24 11:32:56;;;;;;;;;;;20.60;93.90;;;20.49;42.41;95266.00;10348739;28;1993;-81
2021/05/24 11:38:03;;;;;;;;;;;20.90;92.80;;;20.54;42.16;95258.69;10342288;28;2126;-81
2021/05/24 11:43:12;;;;;;;;;;;21.20;91.60;;;20.64;42.08;95250.78;10274377;28;1746;-85
2021/05/24 11:48:15;;;;;;;;;;;21.40;91.20;;;20.91;40.50;95232.72;10340379;28;2083;-83
2021/05/24 11:53:17;;;;;;;;;;;21.60;88.40;;;21.35;40.98;95227.16;10341678;28;2019;-83
2021/05/24 11:58:19;;;;;;;;;;;21.80;89.00;;;22.09;38.88;95211.63;10294095;28;1979;-84
2021/05/24 12:03:22;;;;;;;;;;;22.30;87.90;;;22.04;39.00;95211.88;10345050;28;2141;-84
2021/05/24 12:08:24;;;;;;;;;;;22.60;86.30;;;22.36;38.47;95209.00;10295094;28;2051;-83
2021/05/24 12:13:26;;;;;;;;;;;22.80;85.50;;;22.14;39.16;95194.13;10356647;28;1943;-83
2021/05/24 12:18:30;;;;;;;;;;;23.10;84.40;;;22.34;38.44;95189.41;10363362;28;1965;-84
2021/05/24 12:23:32;;;;;;;;;;;23.30;83.10;;;21.88;40.27;95191.97;10281640;28;1748;-83
2021/05/24 12:28:35;;;;;;;;;;;22.80;83.90;;;20.50;43.61;95172.03;10283905;28;1633;-82
2021/05/24 12:33:37;;;;;;;;;;;22.00;85.50;;;21.04;42.08;95174.09;10345999;28;2102;-81
2021/05/24 12:38:45;;;;;;;;;;;21.70;86.30;;;21.29;41.98;95152.06;10266356;28;2150;-82
2021/05/24 12:43:47;;;;;;;;;;;22.00;86.00;;;21.49;41.92;95137.25;10333842;28;2261;-83
2021/05/24 12:48:51;;;;;;;;;;;22.20;86.10;;;21.84;40.70;95118.06;10327555;28;2086;-83
2021/05/24 12:53:54;;;;;;;;;;;22.40;85.40;;;21.79;40.66;95099.19;10274523;28;2103;-84
2021/05/24 12:59:01;;;;;;;;;;;22.60;84.00;;;21.89;39.54;95105.25;10317671;28;2219;-82
2021/05/24 13:04:04;;;;;;;;;;;22.50;83.90;;;21.89;40.11;95097.81;10256805;28;2340;-84
2021/05/24 13:09:07;;;;;;;;;;;22.50;82.90;;;22.83;37.35;95087.28;10267871;28;2095;-80
2021/05/24 13:14:10;;;;;;;;;;;23.20;80.70;;;23.43;35.69;95098.38;10320945;28;2127;-82
2021/05/24 13:19:37;;;;;;;;;;;23.70;78.70;;;23.39;35.83;95103.00;10319899;28;2092;-82
2021/05/24 13:25:17;;;;;;;;;;;24.00;77.40;;;22.62;37.84;95112.41;10262678;28;1900;-82
2021/05/24 13:30:20;;;;;;;;;;;23.70;77.70;;;22.58;37.33;95117.03;10275267;28;1959;-85
2021/05/24 13:35:22;;;;;;;;;;;23.40;77.10;;;22.03;36.55;95110.97;10317085;28;2028;-83
2021/05/24 13:40:25;;;;;;;;;;;23.00;75.50;;;22.02;36.48;95118.41;10256024;28;1949;-83
2021/05/24 13:45:31;;;;;;;;;;;22.90;75.50;;;21.46;38.91;95118.06;10329681;28;1973;-83
2021/05/24 13:50:34;;;;;;;;;;;22.50;76.60;;;20.94;39.71;95117.28;10254524;28;2072;-84
2021/05/24 13:55:37;;;;;;;;;;;22.20;77.50;;;20.36;43.58;95122.50;10251571;28;1670;-83
2021/05/24 14:00:39;;;;;;;;;;;21.80;80.20;;;19.53;45.99;95112.44;10259496;28;2274;-82
2021/05/24 14:05:50;;;;;;;;;;;21.20;82.20;;;19.41;51.04;95105.91;10267253;28;1705;-84
2021/05/24 14:10:52;;;;;;;;;;;20.70;88.30;;;18.63;54.87;95108.94;10259312;28;2003;-82
2021/05/24 14:15:57;;;;;;;;;;;20.20;93.80;;;18.12;58.99;95099.50;10322301;28;2250;-84
2021/05/24 14:21:01;;;;;;;;;;;19.60;98.40;;;17.74;56.61;95106.78;10346526;28;1972;-85
2021/05/24 14:26:04;;;;;;;;;;;19.10;95.30;;;17.29;58.49;95112.91;10321940;28;1868;-82
2021/05/24 14:31:08;;;;;;;;;;;18.70;97.70;;;17.01;58.96;95101.00;10316324;28;2015;-81
2021/05/24 14:36:11;;;;;;;;;;;18.30;99.30;;;16.90;64.99;95110.66;10262485;28;1971;-83
2021/05/24 14:41:14;;;;;;;;;;;18.10;99.90;;;16.72;64.23;95120.81;10275615;28;2419;-83
2021/05/24 14:46:16;;;;;;;;;;;18.00;99.90;;;16.43;61.30;95116.16;10334879;28;2131;-84
2021/05/24 14:51:21;;;;;;;;;;;17.70;99.90;;;16.17;66.26;95133.31;10264416;28;1945;-82
2021/05/24 14:56:23;;;;;;;;;;;17.50;99.90;;;15.89;67.39;95151.09;10328002;28;1650;-83
2021/05/24 15:01:26;;;;;;;;;;;17.30;99.90;;;15.65;67.40;95159.75;10261245;28;2068;-83
2021/05/24 15:06:28;;;;;;;;;;;17.00;99.90;;;15.54;69.43;95175.50;10320906;28;2124;-83
2021/05/24 15:11:31;;;;;;;;;;;16.80;99.90;;;15.28;73.93;95182.84;10255193;28;1932;-85
2021/05/24 15:16:33;;;;;;;;;;;16.60;99.90;;;14.95;81.10;95190.56;10314865;28;1869;-80
2021/05/24 15:21:36;;;;;;;;;;;16.30;99.90;;;14.41;83.49;95219.63;10324902;28;2015;-84
2021/05/24 15:26:38;;;;;;;;;;;15.80;99.90;;;14.18;82.62;95227.78;10339481;28;1909;-83
2021/05/24 15:31:41;;;;;;;;;;;15.50;99.90;;;14.04;83.58;95224.34;10333768;28;2030;-83
2021/05/24 15:36:43;;;;;;;;;;;15.20;99.90;;;14.05;85.28;95226.75;10277868;28;2179;-84
2021/05/24 15:41:47;;;;;;;;;;;15.10;99.90;;;14.11;82.75;95232.03;10343990;28;1948;-83
2021/05/24 15:46:54;;;;;;;;;;;15.10;99.90;;;14.06;84.47;95231.06;10348218;28;2461;-85
2021/05/24 15:52:02;;;;;;;;;;;15.10;99.90;;;13.82;83.92;95240.59;10319956;28;1526;-86
2021/05/24 15:57:13;;;;;;;;;;;15.00;99.90;;;13.63;87.62;95240.75;10333458;28;1304;-85
2021/05/24 16:07:45;;;;;;;;;;;14.70;99.90;;;13.55;88.66;95244.16;10326606;28;1198;-86
2021/05/24 16:13:20;;;;;;;;;;;14.60;99.90;;;13.34;87.00;95252.72;10344540;28;1596;-84
2021/05/24 16:18:28;;;;;;;;;;;14.50;99.90;;;13.24;88.28;95259.16;10342544;28;1991;-87
2021/05/24 16:23:48;;;;;;;;;;;15.70;99.90;;;13.09;88.56;95258.63;10269114;28;1411;-82
2021/05/24 16:29:44;;;;;;;;;;;;;;;;;;;;;
2021/05/24 16:41:27;;;;;;;;;;;13.80;99.90;;;12.55;91.40;95271.03;10322310;28;1985;-85
2021/05/24 16:46:35;;;;;;;;;;;13.70;99.90;;;12.39;92.51;95273.19;10261640;28;1496;-86
2021/05/24 16:51:49;;;;;;;;;;;13.50;99.90;;;12.22;94.76;95271.06;10340990;28;1476;-84
2021/05/24 16:57:01;;;;;;;;;;;13.30;99.90;;;12.13;95.06;95273.63;10336936;28;1268;-83
2021/05/24 17:02:23;;;;;;;;;;;13.20;99.90;;;11.95;92.67;95289.81;10276950;28;1899;-85
2021/05/24 17:07:43;;;;;;;;;;;13.00;99.90;;;11.68;89.56;95306.63;10342417;28;1242;-87
2021/05/24 17:13:11;;;;;;;;;;;12.90;99.90;;;11.29;88.08;95313.88;10331878;28;1607;-85
2021/05/24 17:18:23;;;;;;;;;;;12.50;99.90;;;11.12;89.52;95318.94;10335117;28;1655;-84
2021/05/24 17:23:28;;;;;;;;;;;12.30;99.90;;;10.92;90.59;95338.00;10334404;28;1911;-85
2021/05/24 17:28:42;;;;;;;;;;;12.00;99.90;;;10.80;94.33;95347.25;10266074;28;1645;-84
2021/05/24 17:33:58;;;;;;;;;;;11.90;99.90;;;10.76;96.73;95369.66;10327141;28;1592;-84
2021/05/24 17:39:10;;;;;;;;;;;11.80;99.90;;;10.73;97.37;95373.69;10323650;28;1910;-85
2021/05/24 17:44:13;;;;;;;;;;;11.70;99.90;;;10.59;97.63;95380.81;10342311;28;1566;-85
2021/05/24 17:49:16;;;;;;;;;;;11.60;99.90;;;10.57;98.23;95399.13;10331574;28;1509;-86
2021/05/24 17:54:19;;;;;;;;;;;11.60;99.90;;;10.59;99.97;95406.91;10321831;28;1554;-85
2021/05/24 17:59:22;;;;;;;;;;;11.50;99.90;;;10.55;100.00;95414.72;10342215;28;1907;-83
2021/05/24 18:04:27;;;;;;;;;;;11.50;99.90;;;10.53;100.00;95414.19;10269976;28;1450;-82
2021/05/24 18:09:29;;;;;;;;;;;11.50;99.90;;;10.55;100.00;95395.91;10272222;28;1632;-87
2021/05/24 18:14:32;;;;;;;;;;;11.50;99.90;;;10.54;100.00;95415.78;10256954;28;1371;-84
2021/05/24 18:19:35;;;;;;;;;;;11.50;99.90;;;10.57;100.00;95411.75;10338025;28;1887;-85
2021/05/24 18:24:37;;;;;;;;;;;11.50;99.90;;;10.51;100.00;95414.47;10319489;28;1662;-85
2021/05/24 18:29:40;;;;;;;;;;;11.50;99.90;;;10.45;100.00;95422.88;10324053;28;1225;-82
2021/05/24 18:34:44;;;;;;;;;;;11.40;99.90;;;10.38;100.00;95425.06;10264904;28;1902;-85
2021/05/24 18:39:47;;;;;;;;;;;11.40;99.90;;;10.33;100.00;95427.78;10327590;28;1910;-84
2021/05/24 18:44:49;;;;;;;;;;;11.20;99.90;;;10.32;100.00;95431.56;10273306;28;2036;-83
2021/05/24 18:50:03;;;;;;;;;;;11.20;99.90;;;10.32;100.00;95435.06;10261500;28;1807;-85
2021/05/24 18:55:09;;;;;;;;;;;11.20;99.90;;;10.33;100.00;95435.84;10264310;28;1506;-85
2021/05/24 19:00:12;;;;;;;;;;;11.40;99.90;;;10.37;100.00;95442.25;10338200;28;1895;-86
2021/05/24 19:10:36;;;;;;;;;;;;;;;10.35;100.00;95434.47;10346911;28;1585;-85
2021/05/24 19:15:39;;;;;;;;;;;;;;;10.31;100.00;95433.47;10338917;28;1212;-84
2021/05/24 19:20:42;;;;;;;;;;;;;;;10.31;100.00;95432.63;10356904;28;1977;-85
2021/05/24 19:25:46;;;;;;;;;;;;;;;10.25;100.00;95427.31;10340941;28;1330;-86
2021/05/24 19:30:51;;;;;;;;;;;;;;;10.21;100.00;95439.66;10339600;28;1285;-85
2021/05/24 19:35:54;;;;;;;;;;;11.10;99.90;;;10.22;100.00;95410.91;10283375;28;1295;-82
2021/05/24 19:40:56;;;;;;;;;;;11.10;99.90;;;10.17;100.00;95413.63;10318091;28;1952;-83
2021/05/24 19:46:01;;;;;;;;;;;11.10;99.90;;;10.10;100.00;95427.38;10302193;28;1139;-85
2021/05/24 20:28:56;;;;;;;;;;;10.80;99.90;;;9.82;100.00;95430.78;10274430;28;1644;-85
2021/05/24 20:33:58;;;;;;;;;;;10.80;99.90;;;9.77;100.00;95439.66;10344548;28;1660;-84
2021/05/24 20:39:01;;;;;;;;;;;10.80;99.90;;;9.77;100.00;95444.22;10264709;28;2052;-83
2021/05/24 20:44:04;;;;;;;;;;;10.80;99.90;;;9.71;99.66;95428.13;10277185;28;1436;-84
2021/05/24 20:49:06;;;;;;;;;;;10.80;99.90;;;9.71;99.70;95427.31;10340617;28;1642;-83
2021/05/24 20:54:09;;;;;;;;;;;10.80;99.90;;;9.69;99.73;95437.56;10346498;28;1601;-84
2021/05/24 20:59:13;;;;;;;;;;;10.80;99.90;;;9.70;99.87;95439.94;10342668;28;1891;-84
2021/05/24 21:04:15;;;;;;;;;;;10.80;99.90;;;9.64;98.98;95430.31;10297466;28;1628;-84
2021/05/24 21:09:18;;;;;;;;;;;10.80;99.90;;;9.62;100.00;95437.06;10388664;28;1264;-84
2021/05/24 21:14:21;;;;;;;;;;;10.70;99.90;;;9.61;100.00;95436.25;10271976;28;1818;-83
2021/05/24 21:19:26;;;;;;;;;;;10.70;99.90;;;9.60;100.00;95442.66;10354435;28;1977;-85
2021/05/24 21:24:29;;;;;;;;;;;10.70;99.90;;;9.58;100.00;95439.47;10282554;28;2046;-87
2021/05/24 21:29:35;;;;;;;;;;;10.60;99.90;;;9.62;99.78;95437.06;10355249;28;1625;-84
2021/05/24 21:39:58;;;;;;;;;;;10.60;99.90;;;9.58;99.41;95446.72;10287641;28;2050;-84
2021/05/24 21:45:01;;;;;;;;;;;10.60;99.90;;;9.55;99.35;95441.91;10371581;28;1381;-83
2021/05/24 21:50:06;;;;;;;;;;;10.60;99.90;;;9.54;99.71;95448.34;10366970;28;1837;-85
2021/05/24 21:55:09;;;;;;;;;;;10.70;99.90;;;9.55;99.46;95453.44;10278071;28;1967;-82
2021/05/24 22:00:11;;;;;;;;;;;10.60;99.90;;;9.52;100.00;95459.34;10313247;28;1911;-85
2021/05/24 22:05:14;;;;;;;;;;;10.60;99.90;;;9.56;100.00;95460.41;10305288;28;1704;-82
2021/05/24 22:10:18;;;;;;;;;;;10.60;99.90;;;9.54;99.93;95459.06;10374628;28;1840;-83
2021/05/24 22:15:22;;;;;;;;;;;10.60;99.90;;;9.54;99.85;95465.22;10387737;28;2149;-83
2021/05/24 22:20:26;;;;;;;;;;;10.60;99.90;;;9.54;100.00;95462.56;10349108;28;2122;-84
2021/05/24 22:25:28;;;;;;;;;;;10.60;99.90;;;9.55;99.62;95464.19;10355448;28;1750;-84
2021/05/24 22:30:31;;;;;;;;;;;10.60;99.90;;;9.57;98.64;95466.59;10361427;28;1921;-84
2021/05/24 22:35:33;;;;;;;;;;;10.60;99.90;;;9.56;98.52;95455.03;10296371;28;2090;-84
2021/05/24 22:40:35;;;;;;;;;;;10.60;99.90;;;9.55;97.72;95466.88;10268841;28;1956;-84
2021/05/24 22:45:38;;;;;;;;;;;10.70;99.90;;;9.53;97.40;95460.94;10272068;28;1670;-84
2021/05/24 22:50:40;;;;;;;;;;;10.60;99.90;;;9.51;97.95;95463.09;10331007;28;1901;-82
2021/05/24 22:55:42;;;;;;;;;;;10.60;99.90;;;9.48;97.52;95461.78;10263965;28;1494;-84
2021/05/24 23:00:45;;;;;;;;;;;10.70;99.90;;;9.49;97.54;95473.31;10335929;28;1887;-85
2021/05/24 23:05:47;;;;;;;;;;;10.60;99.90;;;9.52;97.71;95480.81;10351939;28;2065;-86
2021/05/24 23:10:50;;;;;;;;;;;10.70;99.90;;;9.52;98.38;95480.81;10355851;28;1999;-85
2021/05/24 23:15:52;;;;;;;;;;;10.70;99.90;;;9.51;99.28;95498.00;10354871;28;2037;-85
2021/05/24 23:20:55;;;;;;;;;;;10.70;99.90;;;9.51;98.96;95516.78;10312510;28;2119;-84
2021/05/24 23:25:58;;;;;;;;;;;10.70;99.90;;;9.48;98.77;95534.22;10343655;28;2058;-85
2021/05/24 23:31:00;;;;;;;;;;;10.70;99.90;;;9.43;97.88;95566.44;10339013;28;1876;-83
2021/05/24 23:36:03;;;;;;;;;;;10.60;99.90;;;9.30;98.54;95579.59;10339201;28;1948;-83
2021/05/24 23:41:05;;;;;;;;;;;10.60;99.90;;;9.24;99.35;95596.78;10254126;28;1895;-85
2021/05/24 23:46:08;;;;;;;;;;;10.50;99.90;;;9.12;99.31;95616.59;10270195;28;2032;-85
2021/05/24 23:51:10;;;;;;;;;;;10.30;99.90;;;8.79;97.38;95617.13;10342372;28;1797;-85
2021/05/24 23:56:12;;;;;;;;;;;9.90;99.90;;;8.44;97.38;95618.63;10262376;28;2044;-85
